sensor_id;sensor_type;location;lat;lon;timestamp;temperature;humidity
7654;DHT22;3869;48.406;10.774;2023-07-29T00:02:15;17.50;99.90
7654;DHT22;3869;48.406;10.774;2023-07-29T00:04:43;17.50;99.90
7654;DHT22;3869;48.406;10.774;2023-07-29T00:07:11;17.60;99.90
7654;DHT22;3869;48.406;10.774;2023-07-29T00:09:39;17.50;99.90
7654;DHT22;3869;48.406;10.774;2023-07-29T00:12:08;17.50;99.90
7654;DHT22;3869;48.406;10.774;2023-07-29T00:14:36;17.50;99.90
7654;DHT22;3869;48.406;10.774;2023-07-29T00:17:05;17.50;99.90
7654;DHT22;3869;48.406;10.774;2023-07-29T00:19:33;17.60;99.90
7654;DHT22;3869;48.406;10.774;2023-07-29T00:22:01;17.50;99.90
7654;DHT22;3869;48.406;10.774;2023-07-29T00:24:29;17.60;99.90
7654;DHT22;3869;48.406;10.774;2023-07-29T00:26:57;17.60;99.90
7654;DHT22;3869;48.406;10.774;2023-07-29T00:29:25;17.60;99.90
7654;DHT22;3869;48.406;10.774;2023-07-29T00:31:53;17.50;99.90
7654;DHT22;3869;48.406;10.774;2023-07-29T00:34:23;17.50;99.90
7654;DHT22;3869;48.406;10.774;2023-07-29T00:36:51;17.50;99.90
7654;DHT22;3869;48.406;10.774;2023-07-29T00:39:19;17.50;99.90
7654;DHT22;3869;48.406;10.774;2023-07-29T00:41:47;17.50;99.90
7654;DHT22;3869;48.406;10.774;2023-07-29T00:44:15;17.40;99.90
7654;DHT22;3869;48.406;10.774;2023-07-29T00:46:44;17.50;99.90
7654;DHT22;3869;48.406;10.774;2023-07-29T00:49:13;17.40;99.90
7654;DHT22;3869;48.406;10.774;2023-07-29T00:51:43;17.40;99.90
7654;DHT22;3869;48.406;10.774;2023-07-29T00:54:11;17.30;99.90
7654;DHT22;3869;48.406;10.774;2023-07-29T00:56:39;17.30;99.90
7654;DHT22;3869;48.406;10.774;2023-07-29T00:59:07;17.30;99.90
7654;DHT22;3869;48.406;10.774;2023-07-29T01:01:36;17.30;99.90
7654;DHT22;3869;48.406;10.774;2023-07-29T01:04:04;17.20;99.90
7654;DHT22;3869;48.406;10.774;2023-07-29T01:06:38;17.20;99.90
7654;DHT22;3869;48.406;10.774;2023-07-29T01:09:20;17.20;99.90
7654;DHT22;3869;48.406;10.774;2023-07-29T01:11:57;17.20;99.90
7654;DHT22;3869;48.406;10.774;2023-07-29T01:14:34;17.20;99.90
7654;DHT22;3869;48.406;10.774;2023-07-29T01:17:08;17.20;99.90
7654;DHT22;3869;48.406;10.774;2023-07-29T01:19:45;17.20;99.90
7654;DHT22;3869;48.406;10.774;2023-07-29T01:22:16;17.10;99.90
7654;DHT22;3869;48.406;10.774;2023-07-29T01:24:45;17.10;99.90
7654;DHT22;3869;48.406;10.774;2023-07-29T01:27:13;17.10;99.90
7654;DHT22;3869;48.406;10.774;2023-07-29T01:29:41;17.00;99.90
7654;DHT22;3869;48.406;10.774;2023-07-29T01:32:14;16.90;99.90
7654;DHT22;3869;48.406;10.774;2023-07-29T01:34:46;16.90;99.90
7654;DHT22;3869;48.406;10.774;2023-07-29T01:37:19;16.90;99.90
7654;DHT22;3869;48.406;10.774;2023-07-29T01:39:54;16.90;99.90
7654;DHT22;3869;48.406;10.774;2023-07-29T01:42:24;16.90;99.90
7654;DHT22;3869;48.406;10.774;2023-07-29T01:44:56;16.90;99.90
7654;DHT22;3869;48.406;10.774;2023-07-29T01:47:25;16.80;99.90
7654;DHT22;3869;48.406;10.774;2023-07-29T01:49:53;16.60;99.90
7654;DHT22;3869;48.406;10.774;2023-07-29T01:52:21;16.60;99.90
7654;DHT22;3869;48.406;10.774;2023-07-29T01:54:50;16.60;99.90
7654;DHT22;3869;48.406;10.774;2023-07-29T01:57:18;16.70;99.90
7654;DHT22;3869;48.406;10.774;2023-07-29T01:59:46;16.70;99.90
7654;DHT22;3869;48.406;10.774;2023-07-29T02:02:14;16.70;99.90
7654;DHT22;3869;48.406;10.774;2023-07-29T02:04:42;16.70;99.90
7654;DHT22;3869;48.406;10.774;2023-07-29T02:07:12;16.70;99.90
7654;DHT22;3869;48.406;10.774;2023-07-29T02:09:40;16.60;99.90
7654;DHT22;3869;48.406;10.774;2023-07-29T02:12:09;16.60;99.90
7654;DHT22;3869;48.406;10.774;2023-07-29T02:14:37;16.60;99.90
7654;DHT22;3869;48.406;10.774;2023-07-29T02:17:05;16.60;99.90
7654;DHT22;3869;48.406;10.774;2023-07-29T02:19:33;16.60;99.90
7654;DHT22;3869;48.406;10.774;2023-07-29T02:22:01;16.60;99.90
7654;DHT22;3869;48.406;10.774;2023-07-29T02:24:29;16.60;99.90
7654;DHT22;3869;48.406;10.774;2023-07-29T02:26:57;16.60;99.90
7654;DHT22;3869;48.406;10.774;2023-07-29T02:29:26;16.60;99.90
7654;DHT22;3869;48.406;10.774;2023-07-29T02:31:54;16.60;99.90
7654;DHT22;3869;48.406;10.774;2023-07-29T02:34:22;16.60;99.90
7654;DHT22;3869;48.406;10.774;2023-07-29T02:36:50;16.70;99.90
7654;DHT22;3869;48.406;10.774;2023-07-29T02:39:18;16.70;99.90
7654;DHT22;3869;48.406;10.774;2023-07-29T02:41:46;16.70;99.90
7654;DHT22;3869;48.406;10.774;2023-07-29T02:44:14;16.70;99.90
7654;DHT22;3869;48.406;10.774;2023-07-29T02:46:44;16.50;99.90
7654;DHT22;3869;48.406;10.774;2023-07-29T02:49:12;16.50;99.90
7654;DHT22;3869;48.406;10.774;2023-07-29T02:51:40;16.50;99.90
7654;DHT22;3869;48.406;10.774;2023-07-29T02:54:08;16.60;99.90
7654;DHT22;3869;48.406;10.774;2023-07-29T02:56:36;16.60;99.90
7654;DHT22;3869;48.406;10.774;2023-07-29T02:59:04;16.60;99.90
7654;DHT22;3869;48.406;10.774;2023-07-29T03:01:32;16.60;99.90
7654;DHT22;3869;48.406;10.774;2023-07-29T03:04:02;16.60;99.90
7654;DHT22;3869;48.406;10.774;2023-07-29T03:06:30;16.60;99.90
7654;DHT22;3869;48.406;10.774;2023-07-29T03:08:58;16.50;99.90
7654;DHT22;3869;48.406;10.774;2023-07-29T03:11:25;16.50;99.90
7654;DHT22;3869;48.406;10.774;2023-07-29T03:13:53;16.50;99.90
7654;DHT22;3869;48.406;10.774;2023-07-29T03:16:22;16.50;99.90
7654;DHT22;3869;48.406;10.774;2023-07-29T03:18:50;16.60;99.90
7654;DHT22;3869;48.406;10.774;2023-07-29T03:21:19;16.50;99.90
7654;DHT22;3869;48.406;10.774;2023-07-29T03:23:47;16.60;99.90
7654;DHT22;3869;48.406;10.774;2023-07-29T03:26:15;16.50;99.90
7654;DHT22;3869;48.406;10.774;2023-07-29T03:28:44;16.50;99.90
7654;DHT22;3869;48.406;10.774;2023-07-29T03:31:12;16.50;99.90
7654;DHT22;3869;48.406;10.774;2023-07-29T03:33:40;16.40;99.90
7654;DHT22;3869;48.406;10.774;2023-07-29T03:36:08;16.30;99.90
7654;DHT22;3869;48.406;10.774;2023-07-29T03:38:37;16.20;99.90
7654;DHT22;3869;48.406;10.774;2023-07-29T03:41:07;16.20;99.90
7654;DHT22;3869;48.406;10.774;2023-07-29T03:43:36;16.20;99.90
7654;DHT22;3869;48.406;10.774;2023-07-29T03:46:04;16.20;99.90
7654;DHT22;3869;48.406;10.774;2023-07-29T03:48:37;16.30;99.90
7654;DHT22;3869;48.406;10.774;2023-07-29T03:51:05;16.30;99.90
7654;DHT22;3869;48.406;10.774;2023-07-29T03:53:33;16.30;99.90
7654;DHT22;3869;48.406;10.774;2023-07-29T03:56:02;16.30;99.90
7654;DHT22;3869;48.406;10.774;2023-07-29T03:58:30;16.30;99.90
7654;DHT22;3869;48.406;10.774;2023-07-29T04:00:58;16.40;99.90
7654;DHT22;3869;48.406;10.774;2023-07-29T04:03:26;16.30;99.90
7654;DHT22;3869;48.406;10.774;2023-07-29T04:05:54;16.30;99.90
7654;DHT22;3869;48.406;10.774;2023-07-29T04:08:23;16.30;99.90
7654;DHT22;3869;48.406;10.774;2023-07-29T04:10:51;16.30;99.90
7654;DHT22;3869;48.406;10.774;2023-07-29T04:13:20;16.40;99.90
7654;DHT22;3869;48.406;10.774;2023-07-29T04:15:48;16.30;99.90
7654;DHT22;3869;48.406;10.774;2023-07-29T04:18:16;16.30;99.90
7654;DHT22;3869;48.406;10.774;2023-07-29T04:20:44;16.30;99.90
7654;DHT22;3869;48.406;10.774;2023-07-29T04:23:12;16.40;99.90
7654;DHT22;3869;48.406;10.774;2023-07-29T04:25:40;16.30;99.90
7654;DHT22;3869;48.406;10.774;2023-07-29T04:28:08;16.30;99.90
7654;DHT22;3869;48.406;10.774;2023-07-29T04:30:37;16.30;99.90
7654;DHT22;3869;48.406;10.774;2023-07-29T04:33:05;16.20;99.90
7654;DHT22;3869;48.406;10.774;2023-07-29T04:35:33;16.30;99.90
7654;DHT22;3869;48.406;10.774;2023-07-29T04:38:01;16.30;99.90
7654;DHT22;3869;48.406;10.774;2023-07-29T04:40:32;16.40;99.90
7654;DHT22;3869;48.406;10.774;2023-07-29T04:43:00;16.40;99.90
7654;DHT22;3869;48.406;10.774;2023-07-29T04:45:28;16.50;99.90
7654;DHT22;3869;48.406;10.774;2023-07-29T04:47:58;16.50;99.90
7654;DHT22;3869;48.406;10.774;2023-07-29T04:50:26;16.60;99.90
7654;DHT22;3869;48.406;10.774;2023-07-29T04:52:54;16.60;99.90
7654;DHT22;3869;48.406;10.774;2023-07-29T04:55:22;16.70;99.90
7654;DHT22;3869;48.406;10.774;2023-07-29T04:57:50;16.70;99.90
7654;DHT22;3869;48.406;10.774;2023-07-29T05:00:18;16.70;99.90
7654;DHT22;3869;48.406;10.774;2023-07-29T05:02:46;16.70;99.90
7654;DHT22;3869;48.406;10.774;2023-07-29T05:05:15;16.70;99.90
7654;DHT22;3869;48.406;10.774;2023-07-29T05:07:43;16.80;99.90
7654;DHT22;3869;48.406;10.774;2023-07-29T05:10:11;16.80;99.90
7654;DHT22;3869;48.406;10.774;2023-07-29T05:12:39;16.90;99.90
7654;DHT22;3869;48.406;10.774;2023-07-29T05:15:08;16.90;99.90
7654;DHT22;3869;48.406;10.774;2023-07-29T05:17:37;17.00;99.90
7654;DHT22;3869;48.406;10.774;2023-07-29T05:20:06;17.00;99.90
7654;DHT22;3869;48.406;10.774;2023-07-29T05:22:36;17.00;99.90
7654;DHT22;3869;48.406;10.774;2023-07-29T05:25:05;17.10;99.90
7654;DHT22;3869;48.406;10.774;2023-07-29T05:27:33;17.10;99.90
7654;DHT22;3869;48.406;10.774;2023-07-29T05:30:01;17.20;99.90
7654;DHT22;3869;48.406;10.774;2023-07-29T05:32:29;17.20;99.90
7654;DHT22;3869;48.406;10.774;2023-07-29T05:34:57;17.30;99.90
7654;DHT22;3869;48.406;10.774;2023-07-29T05:37:25;17.30;99.90
7654;DHT22;3869;48.406;10.774;2023-07-29T05:39:54;17.40;99.90
7654;DHT22;3869;48.406;10.774;2023-07-29T05:42:22;17.40;99.90
7654;DHT22;3869;48.406;10.774;2023-07-29T05:44:50;17.50;99.90
7654;DHT22;3869;48.406;10.774;2023-07-29T05:47:18;17.50;99.90
7654;DHT22;3869;48.406;10.774;2023-07-29T05:49:46;17.50;99.90
7654;DHT22;3869;48.406;10.774;2023-07-29T05:52:15;17.60;99.90
7654;DHT22;3869;48.406;10.774;2023-07-29T05:54:43;17.60;99.90
7654;DHT22;3869;48.406;10.774;2023-07-29T05:57:12;17.70;99.90
7654;DHT22;3869;48.406;10.774;2023-07-29T05:59:40;17.80;99.90
7654;DHT22;3869;48.406;10.774;2023-07-29T06:02:08;17.80;99.90
7654;DHT22;3869;48.406;10.774;2023-07-29T06:04:36;17.90;99.90
7654;DHT22;3869;48.406;10.774;2023-07-29T06:07:05;17.90;99.90
7654;DHT22;3869;48.406;10.774;2023-07-29T06:09:33;18.00;99.90
7654;DHT22;3869;48.406;10.774;2023-07-29T06:12:01;18.00;99.90
7654;DHT22;3869;48.406;10.774;2023-07-29T06:14:30;18.00;99.90
7654;DHT22;3869;48.406;10.774;2023-07-29T06:16:58;18.00;99.90
7654;DHT22;3869;48.406;10.774;2023-07-29T06:19:26;18.10;99.90
7654;DHT22;3869;48.406;10.774;2023-07-29T06:21:55;18.10;99.90
7654;DHT22;3869;48.406;10.774;2023-07-29T06:24:23;18.10;99.90
7654;DHT22;3869;48.406;10.774;2023-07-29T06:26:51;18.10;99.90
7654;DHT22;3869;48.406;10.774;2023-07-29T06:29:19;18.20;99.90
7654;DHT22;3869;48.406;10.774;2023-07-29T06:31:49;18.20;99.90
7654;DHT22;3869;48.406;10.774;2023-07-29T06:34:18;18.10;99.90
7654;DHT22;3869;48.406;10.774;2023-07-29T06:36:46;18.00;99.90
7654;DHT22;3869;48.406;10.774;2023-07-29T06:39:14;17.90;99.90
7654;DHT22;3869;48.406;10.774;2023-07-29T06:41:42;17.90;99.90
7654;DHT22;3869;48.406;10.774;2023-07-29T06:44:10;17.90;99.90
7654;DHT22;3869;48.406;10.774;2023-07-29T06:46:38;17.80;99.90
7654;DHT22;3869;48.406;10.774;2023-07-29T06:49:07;17.80;99.90
7654;DHT22;3869;48.406;10.774;2023-07-29T06:51:35;17.80;99.90
7654;DHT22;3869;48.406;10.774;2023-07-29T06:54:03;17.80;99.90
7654;DHT22;3869;48.406;10.774;2023-07-29T06:56:31;17.80;99.90
7654;DHT22;3869;48.406;10.774;2023-07-29T06:59:00;17.70;99.90
7654;DHT22;3869;48.406;10.774;2023-07-29T07:01:28;17.80;99.90
7654;DHT22;3869;48.406;10.774;2023-07-29T07:03:56;17.80;99.90
7654;DHT22;3869;48.406;10.774;2023-07-29T07:06:26;17.80;99.90
7654;DHT22;3869;48.406;10.774;2023-07-29T07:08:54;17.80;99.90
7654;DHT22;3869;48.406;10.774;2023-07-29T07:11:22;17.90;99.90
7654;DHT22;3869;48.406;10.774;2023-07-29T07:13:50;18.00;99.90
7654;DHT22;3869;48.406;10.774;2023-07-29T07:16:18;18.10;99.90
7654;DHT22;3869;48.406;10.774;2023-07-29T07:18:46;18.20;99.90
7654;DHT22;3869;48.406;10.774;2023-07-29T07:21:14;18.30;99.90
7654;DHT22;3869;48.406;10.774;2023-07-29T07:23:44;18.40;99.90
7654;DHT22;3869;48.406;10.774;2023-07-29T07:26:12;18.40;99.90
7654;DHT22;3869;48.406;10.774;2023-07-29T07:28:40;18.50;99.90
7654;DHT22;3869;48.406;10.774;2023-07-29T07:31:08;18.50;99.90
7654;DHT22;3869;48.406;10.774;2023-07-29T07:33:36;18.60;99.90
7654;DHT22;3869;48.406;10.774;2023-07-29T07:36:04;18.60;99.90
7654;DHT22;3869;48.406;10.774;2023-07-29T07:38:32;18.60;99.90
7654;DHT22;3869;48.406;10.774;2023-07-29T07:41:01;18.70;99.90
7654;DHT22;3869;48.406;10.774;2023-07-29T07:43:29;18.70;99.90
7654;DHT22;3869;48.406;10.774;2023-07-29T07:45:58;18.80;99.90
7654;DHT22;3869;48.406;10.774;2023-07-29T07:48:27;18.80;99.90
7654;DHT22;3869;48.406;10.774;2023-07-29T07:50:55;18.80;99.90
7654;DHT22;3869;48.406;10.774;2023-07-29T07:53:23;18.90;99.90
7654;DHT22;3869;48.406;10.774;2023-07-29T07:55:52;18.90;99.90
7654;DHT22;3869;48.406;10.774;2023-07-29T07:58:21;19.00;99.90
7654;DHT22;3869;48.406;10.774;2023-07-29T08:00:49;19.00;99.90
7654;DHT22;3869;48.406;10.774;2023-07-29T08:03:17;19.00;99.90
7654;DHT22;3869;48.406;10.774;2023-07-29T08:05:45;19.00;99.90
7654;DHT22;3869;48.406;10.774;2023-07-29T08:08:14;19.10;99.90
7654;DHT22;3869;48.406;10.774;2023-07-29T08:10:42;19.10;99.90
7654;DHT22;3869;48.406;10.774;2023-07-29T08:13:10;19.20;99.90
7654;DHT22;3869;48.406;10.774;2023-07-29T08:15:39;19.20;99.90
7654;DHT22;3869;48.406;10.774;2023-07-29T08:18:08;19.30;99.90
7654;DHT22;3869;48.406;10.774;2023-07-29T08:20:36;19.30;99.90
7654;DHT22;3869;48.406;10.774;2023-07-29T08:23:04;19.30;99.90
7654;DHT22;3869;48.406;10.774;2023-07-29T08:25:32;19.30;99.90
7654;DHT22;3869;48.406;10.774;2023-07-29T08:28:00;19.30;99.90
7654;DHT22;3869;48.406;10.774;2023-07-29T08:30:29;19.30;99.90
7654;DHT22;3869;48.406;10.774;2023-07-29T08:32:58;19.40;99.90
7654;DHT22;3869;48.406;10.774;2023-07-29T08:35:26;19.40;99.90
7654;DHT22;3869;48.406;10.774;2023-07-29T08:37:54;19.50;99.90
7654;DHT22;3869;48.406;10.774;2023-07-29T08:40:27;19.60;99.90
7654;DHT22;3869;48.406;10.774;2023-07-29T08:42:57;19.60;99.90
7654;DHT22;3869;48.406;10.774;2023-07-29T08:45:26;19.70;99.90
7654;DHT22;3869;48.406;10.774;2023-07-29T08:47:59;19.80;99.90
7654;DHT22;3869;48.406;10.774;2023-07-29T08:50:27;19.80;99.90
7654;DHT22;3869;48.406;10.774;2023-07-29T08:52:56;19.90;99.90
7654;DHT22;3869;48.406;10.774;2023-07-29T08:55:24;20.00;99.90
7654;DHT22;3869;48.406;10.774;2023-07-29T08:57:53;20.10;99.90
7654;DHT22;3869;48.406;10.774;2023-07-29T09:00:21;20.20;99.90
7654;DHT22;3869;48.406;10.774;2023-07-29T09:02:49;20.30;99.90
7654;DHT22;3869;48.406;10.774;2023-07-29T09:05:20;20.40;99.90
7654;DHT22;3869;48.406;10.774;2023-07-29T09:07:50;20.40;99.90
7654;DHT22;3869;48.406;10.774;2023-07-29T09:10:21;20.50;99.90
7654;DHT22;3869;48.406;10.774;2023-07-29T09:12:50;20.60;99.90
7654;DHT22;3869;48.406;10.774;2023-07-29T09:15:27;20.70;99.90
7654;DHT22;3869;48.406;10.774;2023-07-29T09:17:56;20.70;99.90
7654;DHT22;3869;48.406;10.774;2023-07-29T09:20:30;20.80;99.90
7654;DHT22;3869;48.406;10.774;2023-07-29T09:22:58;20.80;99.90
7654;DHT22;3869;48.406;10.774;2023-07-29T09:25:29;20.90;99.90
7654;DHT22;3869;48.406;10.774;2023-07-29T09:27:59;21.00;99.90
7654;DHT22;3869;48.406;10.774;2023-07-29T09:30:28;21.10;99.90
7654;DHT22;3869;48.406;10.774;2023-07-29T09:32:56;21.20;99.90
7654;DHT22;3869;48.406;10.774;2023-07-29T09:35:27;21.10;99.90
7654;DHT22;3869;48.406;10.774;2023-07-29T09:37:57;21.10;99.90
7654;DHT22;3869;48.406;10.774;2023-07-29T09:40:25;21.10;99.90
7654;DHT22;3869;48.406;10.774;2023-07-29T09:42:54;21.10;99.90
7654;DHT22;3869;48.406;10.774;2023-07-29T09:45:23;21.00;99.90
7654;DHT22;3869;48.406;10.774;2023-07-29T09:47:53;21.00;99.90
7654;DHT22;3869;48.406;10.774;2023-07-29T09:50:23;20.90;99.90
7654;DHT22;3869;48.406;10.774;2023-07-29T09:52:53;20.80;99.90
7654;DHT22;3869;48.406;10.774;2023-07-29T09:55:23;20.70;99.90
7654;DHT22;3869;48.406;10.774;2023-07-29T09:57:54;20.60;99.90
7654;DHT22;3869;48.406;10.774;2023-07-29T10:00:22;20.50;99.90
7654;DHT22;3869;48.406;10.774;2023-07-29T10:02:50;20.50;99.90
7654;DHT22;3869;48.406;10.774;2023-07-29T10:05:20;20.30;99.90
7654;DHT22;3869;48.406;10.774;2023-07-29T10:07:49;20.20;99.90
7654;DHT22;3869;48.406;10.774;2023-07-29T10:10:18;20.10;99.90
7654;DHT22;3869;48.406;10.774;2023-07-29T10:12:47;20.00;99.90
7654;DHT22;3869;48.406;10.774;2023-07-29T10:15:16;19.90;99.90
7654;DHT22;3869;48.406;10.774;2023-07-29T10:17:45;19.90;99.90
7654;DHT22;3869;48.406;10.774;2023-07-29T10:20:15;19.80;99.90
7654;DHT22;3869;48.406;10.774;2023-07-29T10:22:47;19.70;99.90
7654;DHT22;3869;48.406;10.774;2023-07-29T10:25:16;19.70;99.90
7654;DHT22;3869;48.406;10.774;2023-07-29T10:27:49;19.70;99.90
7654;DHT22;3869;48.406;10.774;2023-07-29T10:30:20;19.70;99.90
7654;DHT22;3869;48.406;10.774;2023-07-29T10:32:48;19.80;99.90
7654;DHT22;3869;48.406;10.774;2023-07-29T10:35:17;19.90;99.90
7654;DHT22;3869;48.406;10.774;2023-07-29T10:37:45;20.00;99.90
7654;DHT22;3869;48.406;10.774;2023-07-29T10:40:17;20.10;99.90
7654;DHT22;3869;48.406;10.774;2023-07-29T10:43:01;20.20;99.90
7654;DHT22;3869;48.406;10.774;2023-07-29T10:45:37;20.30;99.90
7654;DHT22;3869;48.406;10.774;2023-07-29T10:48:06;20.50;99.90
7654;DHT22;3869;48.406;10.774;2023-07-29T10:50:35;20.50;99.90
7654;DHT22;3869;48.406;10.774;2023-07-29T10:53:03;20.50;99.90
7654;DHT22;3869;48.406;10.774;2023-07-29T10:55:33;20.70;99.90
7654;DHT22;3869;48.406;10.774;2023-07-29T10:58:08;20.80;99.90
7654;DHT22;3869;48.406;10.774;2023-07-29T11:00:37;20.90;99.90
7654;DHT22;3869;48.406;10.774;2023-07-29T11:03:06;21.00;99.90
7654;DHT22;3869;48.406;10.774;2023-07-29T11:05:48;21.10;99.90
7654;DHT22;3869;48.406;10.774;2023-07-29T11:08:18;21.20;99.90
7654;DHT22;3869;48.406;10.774;2023-07-29T11:11:02;21.30;99.90
7654;DHT22;3869;48.406;10.774;2023-07-29T11:13:32;21.40;99.90
7654;DHT22;3869;48.406;10.774;2023-07-29T11:16:01;21.50;99.90
7654;DHT22;3869;48.406;10.774;2023-07-29T11:18:31;21.60;99.90
7654;DHT22;3869;48.406;10.774;2023-07-29T11:21:01;21.60;99.90
7654;DHT22;3869;48.406;10.774;2023-07-29T11:23:30;21.50;99.90
7654;DHT22;3869;48.406;10.774;2023-07-29T11:25:59;21.50;99.90
7654;DHT22;3869;48.406;10.774;2023-07-29T11:28:28;21.50;99.90
7654;DHT22;3869;48.406;10.774;2023-07-29T11:30:58;21.50;99.90
7654;DHT22;3869;48.406;10.774;2023-07-29T11:33:27;21.40;99.90
7654;DHT22;3869;48.406;10.774;2023-07-29T11:35:55;21.30;99.90
7654;DHT22;3869;48.406;10.774;2023-07-29T11:38:23;21.20;99.90
7654;DHT22;3869;48.406;10.774;2023-07-29T11:40:56;21.10;99.90
7654;DHT22;3869;48.406;10.774;2023-07-29T11:43:24;21.00;99.90
7654;DHT22;3869;48.406;10.774;2023-07-29T11:45:53;21.10;99.90
7654;DHT22;3869;48.406;10.774;2023-07-29T11:48:31;21.10;99.90
7654;DHT22;3869;48.406;10.774;2023-07-29T11:51:00;21.10;99.90
7654;DHT22;3869;48.406;10.774;2023-07-29T11:53:30;21.10;99.90
7654;DHT22;3869;48.406;10.774;2023-07-29T11:55:58;21.20;99.90
7654;DHT22;3869;48.406;10.774;2023-07-29T11:58:27;21.40;99.90
7654;DHT22;3869;48.406;10.774;2023-07-29T12:00:56;21.50;99.90
7654;DHT22;3869;48.406;10.774;2023-07-29T12:03:26;21.60;99.90
7654;DHT22;3869;48.406;10.774;2023-07-29T12:05:56;21.70;99.90
7654;DHT22;3869;48.406;10.774;2023-07-29T12:08:24;21.70;99.90
7654;DHT22;3869;48.406;10.774;2023-07-29T12:10:53;21.70;99.90
7654;DHT22;3869;48.406;10.774;2023-07-29T12:13:24;21.80;99.90
7654;DHT22;3869;48.406;10.774;2023-07-29T12:15:52;22.00;99.90
7654;DHT22;3869;48.406;10.774;2023-07-29T12:18:29;22.20;99.90
7654;DHT22;3869;48.406;10.774;2023-07-29T12:20:59;22.40;99.90
7654;DHT22;3869;48.406;10.774;2023-07-29T12:23:27;22.50;99.90
7654;DHT22;3869;48.406;10.774;2023-07-29T12:25:57;22.60;99.90
7654;DHT22;3869;48.406;10.774;2023-07-29T12:28:26;22.70;99.90
7654;DHT22;3869;48.406;10.774;2023-07-29T12:30:54;22.70;99.90
7654;DHT22;3869;48.406;10.774;2023-07-29T12:33:33;22.70;99.90
7654;DHT22;3869;48.406;10.774;2023-07-29T12:36:03;22.60;99.90
7654;DHT22;3869;48.406;10.774;2023-07-29T12:38:31;22.70;99.90
7654;DHT22;3869;48.406;10.774;2023-07-29T12:40:59;22.80;99.90
7654;DHT22;3869;48.406;10.774;2023-07-29T12:43:27;22.80;99.90
7654;DHT22;3869;48.406;10.774;2023-07-29T12:45:57;23.00;99.90
7654;DHT22;3869;48.406;10.774;2023-07-29T12:48:25;23.10;99.90
7654;DHT22;3869;48.406;10.774;2023-07-29T12:50:53;23.20;99.90
7654;DHT22;3869;48.406;10.774;2023-07-29T12:53:22;23.20;99.90
7654;DHT22;3869;48.406;10.774;2023-07-29T12:55:50;23.30;99.90
7654;DHT22;3869;48.406;10.774;2023-07-29T12:58:18;23.30;99.90
7654;DHT22;3869;48.406;10.774;2023-07-29T13:00:46;23.30;99.90
7654;DHT22;3869;48.406;10.774;2023-07-29T13:03:14;23.30;99.90
7654;DHT22;3869;48.406;10.774;2023-07-29T13:05:43;23.20;99.90
7654;DHT22;3869;48.406;10.774;2023-07-29T13:08:11;23.10;99.90
7654;DHT22;3869;48.406;10.774;2023-07-29T13:10:40;23.10;99.90
7654;DHT22;3869;48.406;10.774;2023-07-29T13:13:08;23.10;99.90
7654;DHT22;3869;48.406;10.774;2023-07-29T13:15:36;23.10;99.90
7654;DHT22;3869;48.406;10.774;2023-07-29T13:18:04;23.30;99.90
7654;DHT22;3869;48.406;10.774;2023-07-29T13:20:32;23.50;99.90
7654;DHT22;3869;48.406;10.774;2023-07-29T13:23:00;23.50;99.90
7654;DHT22;3869;48.406;10.774;2023-07-29T13:25:28;23.50;99.90
7654;DHT22;3869;48.406;10.774;2023-07-29T13:27:58;23.50;99.90
7654;DHT22;3869;48.406;10.774;2023-07-29T13:30:26;23.50;99.90
7654;DHT22;3869;48.406;10.774;2023-07-29T13:32:54;23.50;99.90
7654;DHT22;3869;48.406;10.774;2023-07-29T13:35:22;23.40;99.90
7654;DHT22;3869;48.406;10.774;2023-07-29T13:37:50;23.50;99.90
7654;DHT22;3869;48.406;10.774;2023-07-29T13:40:18;23.50;99.90
7654;DHT22;3869;48.406;10.774;2023-07-29T13:42:46;23.50;99.90
7654;DHT22;3869;48.406;10.774;2023-07-29T13:45:15;23.50;99.90
7654;DHT22;3869;48.406;10.774;2023-07-29T13:47:43;23.50;99.90
7654;DHT22;3869;48.406;10.774;2023-07-29T13:50:12;23.40;99.90
7654;DHT22;3869;48.406;10.774;2023-07-29T13:52:39;23.50;99.90
7654;DHT22;3869;48.406;10.774;2023-07-29T13:55:08;23.50;99.90
7654;DHT22;3869;48.406;10.774;2023-07-29T13:57:37;23.50;99.90
7654;DHT22;3869;48.406;10.774;2023-07-29T14:00:06;23.50;99.90
7654;DHT22;3869;48.406;10.774;2023-07-29T14:02:36;23.40;99.90
7654;DHT22;3869;48.406;10.774;2023-07-29T14:05:04;23.50;99.90
7654;DHT22;3869;48.406;10.774;2023-07-29T14:07:33;23.50;99.90
7654;DHT22;3869;48.406;10.774;2023-07-29T14:10:03;23.60;99.90
7654;DHT22;3869;48.406;10.774;2023-07-29T14:12:31;23.70;99.90
7654;DHT22;3869;48.406;10.774;2023-07-29T14:14:59;23.80;99.90
7654;DHT22;3869;48.406;10.774;2023-07-29T14:17:27;23.80;99.90
7654;DHT22;3869;48.406;10.774;2023-07-29T14:19:57;23.80;99.90
7654;DHT22;3869;48.406;10.774;2023-07-29T14:22:24;23.90;99.90
7654;DHT22;3869;48.406;10.774;2023-07-29T14:24:53;24.00;99.90
7654;DHT22;3869;48.406;10.774;2023-07-29T14:27:23;24.10;99.90
7654;DHT22;3869;48.406;10.774;2023-07-29T14:29:51;24.10;99.90
7654;DHT22;3869;48.406;10.774;2023-07-29T14:32:19;24.20;99.90
7654;DHT22;3869;48.406;10.774;2023-07-29T14:34:49;24.30;99.90
7654;DHT22;3869;48.406;10.774;2023-07-29T14:37:18;24.30;99.90
7654;DHT22;3869;48.406;10.774;2023-07-29T14:39:46;24.30;99.90
7654;DHT22;3869;48.406;10.774;2023-07-29T14:42:15;24.30;99.90
7654;DHT22;3869;48.406;10.774;2023-07-29T14:44:43;24.30;99.90
7654;DHT22;3869;48.406;10.774;2023-07-29T14:47:11;24.20;99.90
7654;DHT22;3869;48.406;10.774;2023-07-29T14:49:39;24.00;99.90
7654;DHT22;3869;48.406;10.774;2023-07-29T14:52:07;24.00;99.90
7654;DHT22;3869;48.406;10.774;2023-07-29T14:54:37;23.90;99.90
7654;DHT22;3869;48.406;10.774;2023-07-29T14:57:06;23.90;99.90
7654;DHT22;3869;48.406;10.774;2023-07-29T14:59:34;23.80;99.90
7654;DHT22;3869;48.406;10.774;2023-07-29T15:02:03;23.80;99.90
7654;DHT22;3869;48.406;10.774;2023-07-29T15:04:31;23.70;99.90
7654;DHT22;3869;48.406;10.774;2023-07-29T15:06:59;23.70;99.90
7654;DHT22;3869;48.406;10.774;2023-07-29T15:09:27;23.70;99.90
7654;DHT22;3869;48.406;10.774;2023-07-29T15:11:56;23.70;99.90
7654;DHT22;3869;48.406;10.774;2023-07-29T15:14:25;23.60;99.90
7654;DHT22;3869;48.406;10.774;2023-07-29T15:16:53;23.60;99.90
7654;DHT22;3869;48.406;10.774;2023-07-29T15:19:21;23.50;99.90
7654;DHT22;3869;48.406;10.774;2023-07-29T15:21:49;23.50;99.90
7654;DHT22;3869;48.406;10.774;2023-07-29T15:24:17;23.40;99.90
7654;DHT22;3869;48.406;10.774;2023-07-29T15:26:45;23.40;99.90
7654;DHT22;3869;48.406;10.774;2023-07-29T15:29:14;23.30;99.90
7654;DHT22;3869;48.406;10.774;2023-07-29T15:31:42;23.20;99.90
7654;DHT22;3869;48.406;10.774;2023-07-29T15:34:10;23.20;99.90
7654;DHT22;3869;48.406;10.774;2023-07-29T15:36:38;23.10;99.90
7654;DHT22;3869;48.406;10.774;2023-07-29T15:39:07;23.00;99.90
7654;DHT22;3869;48.406;10.774;2023-07-29T15:41:36;23.00;99.90
7654;DHT22;3869;48.406;10.774;2023-07-29T15:44:04;22.90;99.90
7654;DHT22;3869;48.406;10.774;2023-07-29T15:46:33;22.90;99.90
7654;DHT22;3869;48.406;10.774;2023-07-29T15:49:02;22.90;99.90
7654;DHT22;3869;48.406;10.774;2023-07-29T15:51:30;22.80;99.90
7654;DHT22;3869;48.406;10.774;2023-07-29T15:53:58;22.80;99.90
7654;DHT22;3869;48.406;10.774;2023-07-29T15:56:27;22.70;99.90